Time;durP1;ratioP1;P1;durP2;ratioP2;P2;SDS_P1;SDS_P2;PMS_P1;PMS_P2;Temp;Humidity;BMP_temperature;BMP_pressure;BME280_temperature;BME280_humidity;BME280_pressure;Samples;Min_cycle;Max_cycle;Signal;HPM_P1;HPM_P2
2023/07/21 00:01:07;;;;;;;2.88;2.15;;;;;;;;;;4975184;28;25058;-66
2023/07/21 00:03:33;;;;;;;2.60;2.40;;;;;;;;;;4965115;28;25137;-69
2023/07/21 00:06:00;;;;;;;3.00;2.50;;;;;;;;;;4963253;28;25124;-67
2023/07/21 00:08:28;;;;;;;4.32;2.63;;;;;;;;;;4975483;28;25074;-66
2023/07/21 00:10:55;;;;;;;2.92;2.10;;;;;;;;;;4968765;28;25167;-66
2023/07/21 00:13:20;;;;;;;5.55;2.58;;;;;;;;;;4971374;28;25063;-67
2023/07/21 00:15:49;;;;;;;7.55;2.88;;;;;;;;;;4971269;28;25145;-66
2023/07/21 00:18:15;;;;;;;5.53;2.30;;;;;;;;;;4969028;28;25063;-66
2023/07/21 00:20:41;;;;;;;5.28;2.20;;;;;;;;;;4969072;28;25120;-67
2023/07/21 00:23:07;;;;;;;5.65;2.45;;;;;;;;;;4967354;28;25078;-67
2023/07/21 00:25:33;;;;;;;2.45;2.25;;;;;;;;;;4969903;28;25130;-67
2023/07/21 00:27:59;;;;;;;8.52;3.33;;;;;;;;;;4974110;28;25075;-67
2023/07/21 00:30:25;;;;;;;3.33;2.72;;;;;;;;;;4982361;28;25067;-67
2023/07/21 00:32:51;;;;;;;2.60;2.40;;;;;;;;;;4989266;28;25063;-67
2023/07/21 00:35:17;;;;;;;2.83;2.63;;;;;;;;;;4994320;28;25077;-66
2023/07/21 00:37:43;;;;;;;5.43;2.90;;;;;;;;;;4992912;28;25069;-66
2023/07/21 00:40:10;;;;;;;3.15;2.80;;;;;;;;;;4989302;28;25059;-66
2023/07/21 00:42:36;;;;;;;7.63;2.92;;;;;;;;;;4984421;28;25062;-66
2023/07/21 00:45:02;;;;;;;6.30;3.28;;;;;;;;;;4969983;28;25083;-66
2023/07/21 00:47:30;;;;;;;4.47;2.65;;;;;;;;;;4969506;28;25156;-66
2023/07/21 00:49:56;;;;;;;4.20;2.35;;;;;;;;;;4971133;28;25101;-67
2023/07/21 00:52:23;;;;;;;4.05;2.60;;;;;;;;;;4971517;28;25076;-66
2023/07/21 00:54:49;;;;;;;3.70;2.45;;;;;;;;;;4972023;28;25072;-67
2023/07/21 00:57:16;;;;;;;3.20;2.63;;;;;;;;;;4970234;28;25071;-65
2023/07/21 00:59:42;;;;;;;4.22;2.78;;;;;;;;;;4969167;28;25068;-67
2023/07/21 01:02:09;;;;;;;6.97;2.72;;;;;;;;;;4965711;28;25086;-66
2023/07/21 01:04:36;;;;;;;3.17;2.55;;;;;;;;;;4983727;28;25055;-66
2023/07/21 01:07:11;;;;;;;2.90;2.53;;;;;;;;;;4988771;28;25056;-67
2023/07/21 01:09:38;;;;;;;5.45;2.42;;;;;;;;;;4983575;28;25097;-65
2023/07/21 01:12:06;;;;;;;2.80;2.55;;;;;;;;;;4989499;28;25097;-66
2023/07/21 01:14:32;;;;;;;4.15;2.50;;;;;;;;;;4981243;28;25068;-66
2023/07/21 01:17:00;;;;;;;5.03;2.70;;;;;;;;;;4986548;28;25163;-67
2023/07/21 01:19:27;;;;;;;4.25;3.05;;;;;;;;;;4975558;28;25055;-67
2023/07/21 01:22:03;;;;;;;3.08;2.88;;;;;;;;;;4977557;28;25095;-66
2023/07/21 01:24:37;;;;;;;4.95;3.00;;;;;;;;;;4991483;28;25072;-66
2023/07/21 01:27:07;;;;;;;3.53;2.65;;;;;;;;;;4987792;28;25069;-66
2023/07/21 01:29:40;;;;;;;6.50;3.08;;;;;;;;;;5004922;28;25146;-67
2023/07/21 01:32:08;;;;;;;6.32;3.17;;;;;;;;;;4991506;28;25064;-66
2023/07/21 01:34:35;;;;;;;2.65;2.42;;;;;;;;;;4990685;28;25074;-67
2023/07/21 01:37:01;;;;;;;3.38;2.95;;;;;;;;;;4988953;28;25099;-66
2023/07/21 01:39:29;;;;;;;4.60;2.78;;;;;;;;;;4989666;28;25138;-66
2023/07/21 01:41:55;;;;;;;6.05;2.85;;;;;;;;;;4990298;28;25059;-66
2023/07/21 01:44:22;;;;;;;4.38;2.78;;;;;;;;;;4988579;28;25062;-66
2023/07/21 01:46:48;;;;;;;3.20;2.90;;;;;;;;;;4987220;28;25102;-67
2023/07/21 01:49:15;;;;;;;3.10;2.67;;;;;;;;;;4987328;28;25080;-66
2023/07/21 01:51:41;;;;;;;5.15;2.83;;;;;;;;;;4984920;28;25069;-67
2023/07/21 01:54:12;;;;;;;5.97;3.08;;;;;;;;;;4990858;28;25111;-66
2023/07/21 01:56:41;;;;;;;3.33;2.97;;;;;;;;;;4994250;28;25069;-67
2023/07/21 01:59:08;;;;;;;5.57;2.78;;;;;;;;;;4991733;28;25059;-67
2023/07/21 02:01:35;;;;;;;5.60;3.10;;;;;;;;;;4985224;28;25079;-67
2023/07/21 02:04:01;;;;;;;5.05;2.90;;;;;;;;;;4988781;28;25060;-66
2023/07/21 02:06:27;;;;;;;3.42;2.70;;;;;;;;;;4987273;28;25067;-66
2023/07/21 02:08:53;;;;;;;6.13;2.70;;;;;;;;;;4990975;28;25098;-67
2023/07/21 02:11:22;;;;;;;4.00;2.88;;;;;;;;;;4991436;28;25168;-66
2023/07/21 02:13:48;;;;;;;4.57;3.67;;;;;;;;;;4992191;28;25058;-67
2023/07/21 02:16:14;;;;;;;2.90;2.58;;;;;;;;;;4992528;28;25096;-67
2023/07/21 02:18:41;;;;;;;3.88;2.75;;;;;;;;;;4995046;28;25103;-66
2023/07/21 02:21:07;;;;;;;5.85;3.88;;;;;;;;;;4994991;28;25051;-66
2023/07/21 02:23:33;;;;;;;2.88;2.65;;;;;;;;;;4997415;28;25082;-68
2023/07/21 02:26:00;;;;;;;7.32;3.20;;;;;;;;;;4995836;28;25075;-67
2023/07/21 02:28:26;;;;;;;3.47;3.17;;;;;;;;;;4991597;28;25090;-66
2023/07/21 02:31:03;;;;;;;3.75;3.45;;;;;;;;;;4987662;28;25069;-67
2023/07/21 02:33:29;;;;;;;3.30;3.00;;;;;;;;;;4988504;28;25133;-66
2023/07/21 02:35:56;;;;;;;3.95;3.20;;;;;;;;;;4984750;28;25076;-67
2023/07/21 02:38:22;;;;;;;4.10;3.40;;;;;;;;;;4968125;28;25073;-66
2023/07/21 02:40:48;;;;;;;4.53;3.05;;;;;;;;;;4966841;28;25067;-67
2023/07/21 02:43:15;;;;;;;8.13;3.42;;;;;;;;;;4966274;28;25050;-67
2023/07/21 02:45:41;;;;;;;3.90;3.50;;;;;;;;;;4962209;28;25063;-67
2023/07/21 02:48:08;;;;;;;4.07;3.45;;;;;;;;;;4967309;28;25221;-67
2023/07/21 02:50:34;;;;;;;5.30;4.43;;;;;;;;;;4963201;28;25057;-67
2023/07/21 02:53:00;;;;;;;4.78;4.05;;;;;;;;;;4968651;28;25073;-67
2023/07/21 02:55:27;;;;;;;6.18;3.65;;;;;;;;;;4962855;28;25055;-67
2023/07/21 02:57:53;;;;;;;6.57;3.45;;;;;;;;;;4968019;28;25066;-67
2023/07/21 03:00:19;;;;;;;5.80;3.70;;;;;;;;;;4969887;28;25048;-66
2023/07/21 03:02:45;;;;;;;5.63;3.92;;;;;;;;;;4988405;28;25108;-67
2023/07/21 03:05:11;;;;;;;5.32;4.05;;;;;;;;;;4989865;28;25105;-67
2023/07/21 03:07:39;;;;;;;7.43;3.35;;;;;;;;;;4990957;28;25069;-66
2023/07/21 03:10:06;;;;;;;4.35;3.58;;;;;;;;;;4990855;28;25075;-67
2023/07/21 03:12:32;;;;;;;3.72;3.30;;;;;;;;;;4990803;28;25069;-67
2023/07/21 03:14:59;;;;;;;3.58;3.17;;;;;;;;;;4990632;28;25078;-67
2023/07/21 03:17:25;;;;;;;3.85;3.20;;;;;;;;;;4991187;28;25080;-67
2023/07/21 03:19:51;;;;;;;5.05;3.70;;;;;;;;;;4990665;28;25049;-66
2023/07/21 03:22:17;;;;;;;5.90;4.20;;;;;;;;;;4987888;28;25106;-67
2023/07/21 03:24:43;;;;;;;5.72;4.20;;;;;;;;;;4983729;28;25072;-66
2023/07/21 03:27:12;;;;;;;7.63;4.15;;;;;;;;;;4966946;28;25055;-67
2023/07/21 03:29:38;;;;;;;5.68;4.43;;;;;;;;;;4970821;28;25161;-66
2023/07/21 03:32:04;;;;;;;5.32;4.13;;;;;;;;;;4989199;28;25065;-67
2023/07/21 03:34:30;;;;;;;5.30;4.07;;;;;;;;;;4990256;28;25092;-66
2023/07/21 03:36:56;;;;;;;8.95;4.53;;;;;;;;;;4989580;28;25095;-67
2023/07/21 03:39:23;;;;;;;6.57;4.40;;;;;;;;;;4989941;28;25071;-67
2023/07/21 03:41:49;;;;;;;8.57;5.28;;;;;;;;;;4984550;28;25070;-67
2023/07/21 03:44:15;;;;;;;12.77;5.38;;;;;;;;;;5005037;28;25128;-67
2023/07/21 03:46:41;;;;;;;8.48;6.35;;;;;;;;;;4989471;28;25042;-67
2023/07/21 03:49:11;;;;;;;5.82;5.28;;;;;;;;;;4990949;28;25064;-67
2023/07/21 03:51:39;;;;;;;6.38;4.88;;;;;;;;;;4989807;28;25126;-66
2023/07/21 03:54:05;;;;;;;8.40;6.03;;;;;;;;;;4990195;28;25160;-66
2023/07/21 03:56:31;;;;;;;8.00;5.53;;;;;;;;;;4985825;28;25173;-65
2023/07/21 03:58:58;;;;;;;8.27;5.40;;;;;;;;;;4989706;28;25106;-66
2023/07/21 04:01:24;;;;;;;6.35;5.28;;;;;;;;;;4989580;28;25047;-68
2023/07/21 04:03:51;;;;;;;7.40;6.05;;;;;;;;;;4989804;28;25070;-67
2023/07/21 04:06:23;;;;;;;8.02;5.65;;;;;;;;;;4987206;28;25053;-67
2023/07/21 04:08:51;;;;;;;12.60;7.85;;;;;;;;;;4987019;28;25077;-67
2023/07/21 04:11:17;;;;;;;9.82;7.45;;;;;;;;;;4989181;28;25061;-66
2023/07/21 04:13:43;;;;;;;10.20;7.43;;;;;;;;;;4987673;28;25077;-68
2023/07/21 04:16:09;;;;;;;13.65;7.97;;;;;;;;;;4980389;28;25056;-67
2023/07/21 04:18:36;;;;;;;11.55;8.77;;;;;;;;;;4980651;28;25073;-67
2023/07/21 04:21:02;;;;;;;9.93;7.70;;;;;;;;;;4971850;28;25069;-66
2023/07/21 04:23:28;;;;;;;12.32;8.77;;;;;;;;;;4989770;28;25057;-66
2023/07/21 04:25:54;;;;;;;12.93;8.70;;;;;;;;;;4969007;28;25047;-67
2023/07/21 04:28:20;;;;;;;13.68;7.57;;;;;;;;;;4968719;28;25097;-67
2023/07/21 04:30:47;;;;;;;13.55;8.50;;;;;;;;;;4970404;28;25101;-66
2023/07/21 04:33:13;;;;;;;9.75;7.32;;;;;;;;;;4970342;28;25055;-67
2023/07/21 04:35:48;;;;;;;11.18;8.63;;;;;;;;;;4964620;28;25073;-67
2023/07/21 04:38:14;;;;;;;13.48;9.10;;;;;;;;;;4967411;28;25065;-66
2023/07/21 04:40:44;;;;;;;9.80;7.35;;;;;;;;;;4968888;28;25061;-66
2023/07/21 04:43:11;;;;;;;12.55;7.32;;;;;;;;;;4969720;28;25084;-67
2023/07/21 04:45:40;;;;;;;8.35;6.68;;;;;;;;;;4974998;28;25051;-67
2023/07/21 04:48:06;;;;;;;9.00;6.95;;;;;;;;;;4988469;28;25067;-66
2023/07/21 04:50:32;;;;;;;7.22;5.88;;;;;;;;;;4989281;28;25115;-66
2023/07/21 04:52:58;;;;;;;7.40;5.80;;;;;;;;;;4988254;28;25058;-67
2023/07/21 04:55:26;;;;;;;7.32;5.80;;;;;;;;;;4975559;28;25139;-67
2023/07/21 04:57:52;;;;;;;10.25;6.78;;;;;;;;;;4964178;28;25160;-66
2023/07/21 05:00:19;;;;;;;7.35;5.82;;;;;;;;;;4972441;28;25076;-67
2023/07/21 05:02:45;;;;;;;9.25;5.90;;;;;;;;;;4972699;28;25060;-66
2023/07/21 05:05:11;;;;;;;6.20;5.38;;;;;;;;;;4970256;28;25088;-66
2023/07/21 05:07:37;;;;;;;7.20;5.78;;;;;;;;;;4962417;28;25083;-67
2023/07/21 05:10:04;;;;;;;7.93;5.45;;;;;;;;;;4963761;28;25545;-66
2023/07/21 05:12:30;;;;;;;7.18;5.85;;;;;;;;;;4964583;28;25059;-67
2023/07/21 05:14:57;;;;;;;7.40;5.28;;;;;;;;;;4985640;28;25136;-69
2023/07/21 05:17:23;;;;;;;9.02;4.85;;;;;;;;;;4988023;28;25068;-68
2023/07/21 05:19:49;;;;;;;10.70;4.85;;;;;;;;;;4985041;28;25086;-67
2023/07/21 05:22:15;;;;;;;9.40;5.32;;;;;;;;;;4988833;28;25107;-68
2023/07/21 05:24:41;;;;;;;12.68;6.68;;;;;;;;;;4990322;28;25051;-67
2023/07/21 05:27:07;;;;;;;8.13;5.05;;;;;;;;;;4991647;28;25047;-67
2023/07/21 05:29:34;;;;;;;8.45;5.45;;;;;;;;;;4992236;28;25054;-67
2023/07/21 05:32:03;;;;;;;9.38;5.80;;;;;;;;;;4988581;28;25050;-68
2023/07/21 05:34:30;;;;;;;7.38;6.32;;;;;;;;;;4985243;28;25048;-67
2023/07/21 05:36:57;;;;;;;10.48;6.13;;;;;;;;;;4987739;28;25090;-68
2023/07/21 05:39:23;;;;;;;8.15;6.60;;;;;;;;;;4989689;28;25048;-67
2023/07/21 05:41:49;;;;;;;8.88;6.28;;;;;;;;;;4988809;28;25058;-68
2023/07/21 05:44:15;;;;;;;8.02;5.78;;;;;;;;;;4988898;28;25136;-67
2023/07/21 05:46:41;;;;;;;7.25;5.93;;;;;;;;;;4991547;28;25076;-66
2023/07/21 05:49:07;;;;;;;6.20;5.53;;;;;;;;;;4995384;28;25143;-68
2023/07/21 05:51:34;;;;;;;9.60;6.80;;;;;;;;;;4994778;28;25058;-67
2023/07/21 05:53:59;;;;;;;9.63;5.38;;;;;;;;;;4987222;28;25085;-66
2023/07/21 05:56:26;;;;;;;8.23;6.43;;;;;;;;;;4988854;28;25050;-67
2023/07/21 05:58:51;;;;;;;8.55;6.80;;;;;;;;;;4987179;28;25080;-67
2023/07/21 06:01:17;;;;;;;12.02;6.38;;;;;;;;;;4988007;28;25138;-68
2023/07/21 06:03:43;;;;;;;8.70;6.80;;;;;;;;;;4988825;28;25163;-67
2023/07/21 06:06:09;;;;;;;9.23;5.65;;;;;;;;;;4988439;28;25101;-66
2023/07/21 06:08:35;;;;;;;11.10;6.85;;;;;;;;;;4988297;28;25087;-67
2023/07/21 06:11:02;;;;;;;13.27;5.47;;;;;;;;;;4980066;28;25100;-68
2023/07/21 06:13:29;;;;;;;7.57;5.88;;;;;;;;;;4988250;28;25065;-68
2023/07/21 06:15:56;;;;;;;9.45;6.20;;;;;;;;;;4987719;28;25070;-66
2023/07/21 06:18:22;;;;;;;8.27;6.30;;;;;;;;;;4986468;28;25068;-67
2023/07/21 06:20:48;;;;;;;9.75;6.28;;;;;;;;;;4984491;28;25095;-67
2023/07/21 06:23:14;;;;;;;8.75;7.15;;;;;;;;;;4981435;28;25049;-67
2023/07/21 06:25:41;;;;;;;9.88;6.65;;;;;;;;;;4972484;28;25058;-67
2023/07/21 06:28:07;;;;;;;9.93;6.03;;;;;;;;;;4977274;28;25046;-67
2023/07/21 06:30:34;;;;;;;9.50;6.78;;;;;;;;;;4970806;28;25064;-68
2023/07/21 06:33:00;;;;;;;8.57;6.10;;;;;;;;;;4969189;28;25059;-68
2023/07/21 06:35:26;;;;;;;9.00;6.10;;;;;;;;;;4970721;28;25062;-67
2023/07/21 06:37:52;;;;;;;7.10;5.40;;;;;;;;;;4967539;28;25088;-67
2023/07/21 06:40:19;;;;;;;6.45;4.95;;;;;;;;;;4982360;28;25070;-66
2023/07/21 06:42:45;;;;;;;7.13;5.00;;;;;;;;;;4982578;28;25094;-67
2023/07/21 06:45:11;;;;;;;7.00;4.32;;;;;;;;;;4991409;28;25085;-68
2023/07/21 06:47:38;;;;;;;6.97;5.00;;;;;;;;;;4977993;28;25155;-70
2023/07/21 06:50:04;;;;;;;6.25;4.07;;;;;;;;;;4968429;28;25057;-68
2023/07/21 06:52:30;;;;;;;7.50;4.65;;;;;;;;;;4977830;28;25064;-66
2023/07/21 06:54:58;;;;;;;7.88;4.80;;;;;;;;;;4968561;28;25071;-68
2023/07/21 06:57:24;;;;;;;5.88;4.22;;;;;;;;;;4974791;28;25079;-69
2023/07/21 06:59:50;;;;;;;11.70;4.00;;;;;;;;;;4978668;28;25078;-67
2023/07/21 07:02:17;;;;;;;6.15;3.47;;;;;;;;;;4979590;28;25113;-71
2023/07/21 07:04:43;;;;;;;6.22;3.65;;;;;;;;;;4991642;28;25056;-67
2023/07/21 07:07:09;;;;;;;4.90;3.53;;;;;;;;;;4986888;28;25075;-67
2023/07/21 07:09:36;;;;;;;4.80;3.33;;;;;;;;;;4973679;28;25072;-65
2023/07/21 07:12:03;;;;;;;4.75;3.13;;;;;;;;;;4969486;28;25146;-69
2023/07/21 07:14:30;;;;;;;4.63;3.42;;;;;;;;;;4978184;28;25117;-67
2023/07/21 07:16:56;;;;;;;4.70;3.63;;;;;;;;;;4973082;28;25076;-67
2023/07/21 07:19:22;;;;;;;3.97;3.03;;;;;;;;;;4975683;28;25064;-66
2023/07/21 07:21:48;;;;;;;4.72;3.92;;;;;;;;;;4972369;28;25163;-66
2023/07/21 07:24:14;;;;;;;5.53;4.55;;;;;;;;;;4969846;28;25079;-67
2023/07/21 07:26:40;;;;;;;5.20;4.05;;;;;;;;;;4972268;28;25084;-67
2023/07/21 07:29:05;;;;;;;5.40;4.22;;;;;;;;;;4976829;28;25063;-67
2023/07/21 07:31:32;;;;;;;5.60;4.35;;;;;;;;;;4987870;28;25097;-66
2023/07/21 07:33:58;;;;;;;9.02;4.75;;;;;;;;;;5006138;28;25061;-66
2023/07/21 07:36:24;;;;;;;9.38;4.90;;;;;;;;;;4994388;28;25095;-67
2023/07/21 07:38:50;;;;;;;5.85;5.03;;;;;;;;;;4997553;28;25076;-67
2023/07/21 07:41:18;;;;;;;9.57;5.28;;;;;;;;;;4988096;28;25054;-65
2023/07/21 07:43:45;;;;;;;10.30;6.28;;;;;;;;;;4988080;28;25145;-67
2023/07/21 07:46:11;;;;;;;5.68;4.88;;;;;;;;;;4983839;28;25172;-66
2023/07/21 07:48:37;;;;;;;5.15;4.65;;;;;;;;;;4987729;28;25052;-67
2023/07/21 07:51:04;;;;;;;7.70;4.53;;;;;;;;;;4985680;28;25121;-66
2023/07/21 07:53:30;;;;;;;6.13;4.32;;;;;;;;;;4969021;28;25060;-67
2023/07/21 07:55:57;;;;;;;6.63;4.32;;;;;;;;;;4989915;28;25145;-65
2023/07/21 07:58:23;;;;;;;7.15;4.93;;;;;;;;;;4984759;28;25123;-66
2023/07/21 08:00:49;;;;;;;6.43;4.93;;;;;;;;;;4988012;28;25059;-66
2023/07/21 08:03:15;;;;;;;7.53;4.70;;;;;;;;;;4987381;28;25141;-66
2023/07/21 08:05:41;;;;;;;5.60;4.38;;;;;;;;;;4988099;28;25091;-66
2023/07/21 08:08:08;;;;;;;4.40;3.88;;;;;;;;;;4986136;28;25080;-65
2023/07/21 08:10:34;;;;;;;6.20;3.65;;;;;;;;;;4987418;28;25085;-66
2023/07/21 08:13:01;;;;;;;7.15;3.97;;;;;;;;;;4986116;28;25066;-66
2023/07/21 08:15:27;;;;;;;4.15;3.15;;;;;;;;;;4987300;28;25133;-65
2023/07/21 08:17:54;;;;;;;3.70;3.22;;;;;;;;;;4985757;28;25076;-67
2023/07/21 08:20:21;;;;;;;5.72;3.72;;;;;;;;;;4985730;28;25133;-66
2023/07/21 08:22:47;;;;;;;6.72;4.57;;;;;;;;;;4986833;28;25084;-65
2023/07/21 08:25:13;;;;;;;2.70;2.50;;;;;;;;;;4986263;28;25045;-64
2023/07/21 08:27:39;;;;;;;4.13;2.78;;;;;;;;;;4981761;28;25112;-64
2023/07/21 08:30:08;;;;;;;3.08;2.72;;;;;;;;;;4986892;28;25137;-64
2023/07/21 08:32:34;;;;;;;4.93;2.38;;;;;;;;;;4981409;28;25075;-63
2023/07/21 08:35:00;;;;;;;2.88;2.55;;;;;;;;;;4984174;28;25116;-64
2023/07/21 08:37:26;;;;;;;5.57;2.70;;;;;;;;;;4985712;28;25151;-64
2023/07/21 08:39:52;;;;;;;4.15;3.50;;;;;;;;;;4986081;28;25174;-65
2023/07/21 08:42:18;;;;;;;4.10;3.00;;;;;;;;;;4986628;28;25188;-64
2023/07/21 08:44:44;;;;;;;5.03;3.00;;;;;;;;;;4986414;28;25134;-63
2023/07/21 08:47:10;;;;;;;4.00;2.30;;;;;;;;;;4985523;28;25081;-64
2023/07/21 08:49:38;;;;;;;4.25;2.65;;;;;;;;;;4986503;28;25077;-65
2023/07/21 08:52:04;;;;;;;3.33;2.38;;;;;;;;;;4985979;28;25076;-64
2023/07/21 08:54:30;;;;;;;2.47;2.20;;;;;;;;;;4986015;28;25053;-63
2023/07/21 08:56:56;;;;;;;2.53;2.28;;;;;;;;;;4985443;28;25079;-63
2023/07/21 08:59:22;;;;;;;3.10;2.30;;;;;;;;;;4985914;28;25071;-64
2023/07/21 09:01:48;;;;;;;2.88;2.40;;;;;;;;;;4985474;28;25091;-64
2023/07/21 09:04:18;;;;;;;2.30;2.10;;;;;;;;;;4985673;28;25061;-65
2023/07/21 09:06:50;;;;;;;3.58;2.38;;;;;;;;;;4984777;28;25055;-65
2023/07/21 09:09:20;;;;;;;2.75;1.70;;;;;;;;;;4985663;28;25060;-64
2023/07/21 09:11:46;;;;;;;3.47;1.50;;;;;;;;;;4975159;28;25053;-63
2023/07/21 09:14:12;;;;;;;4.03;2.30;;;;;;;;;;4966201;28;25061;-64
2023/07/21 09:16:39;;;;;;;2.60;1.90;;;;;;;;;;4963420;28;25066;-63
2023/07/21 09:19:07;;;;;;;5.95;3.10;;;;;;;;;;4966038;28;25095;-63
2023/07/21 09:21:37;;;;;;;4.43;2.90;;;;;;;;;;4962270;28;25066;-64
2023/07/21 09:24:03;;;;;;;3.60;2.70;;;;;;;;;;4968354;28;25076;-63
2023/07/21 09:26:29;;;;;;;3.38;3.05;;;;;;;;;;4968963;28;25076;-63
2023/07/21 09:28:55;;;;;;;3.83;2.00;;;;;;;;;;4982858;28;25055;-63
2023/07/21 09:31:29;;;;;;;2.90;2.03;;;;;;;;;;4976987;28;25062;-64
2023/07/21 09:33:55;;;;;;;10.20;2.38;;;;;;;;;;4972906;28;25143;-64
2023/07/21 09:36:22;;;;;;;3.95;1.75;;;;;;;;;;4995196;28;25178;-63
2023/07/21 09:38:49;;;;;;;1.73;1.60;;;;;;;;;;4997826;28;25099;-64
2023/07/21 09:41:15;;;;;;;4.25;2.00;;;;;;;;;;4975030;28;25060;-64
2023/07/21 09:43:42;;;;;;;1.50;1.33;;;;;;;;;;4994583;28;25080;-64
2023/07/21 09:46:09;;;;;;;2.90;1.95;;;;;;;;;;4994648;28;25093;-64
2023/07/21 09:48:36;;;;;;;1.58;1.48;;;;;;;;;;4995485;28;25064;-62
2023/07/21 09:51:03;;;;;;;2.67;1.80;;;;;;;;;;4988030;28;25116;-64
2023/07/21 09:53:39;;;;;;;4.90;1.50;;;;;;;;;;4996334;28;25059;-63
2023/07/21 09:56:06;;;;;;;4.90;1.80;;;;;;;;;;4982826;28;25070;-63
2023/07/21 09:58:34;;;;;;;1.63;1.48;;;;;;;;;;4991327;28;25078;-63
2023/07/21 10:01:02;;;;;;;2.58;1.95;;;;;;;;;;4990180;28;25073;-66
2023/07/21 10:03:29;;;;;;;6.18;2.53;;;;;;;;;;4988731;28;25100;-63
2023/07/21 10:05:55;;;;;;;4.03;1.75;;;;;;;;;;4972904;28;25078;-64
2023/07/21 10:08:21;;;;;;;1.33;1.23;;;;;;;;;;4978214;28;25073;-63
2023/07/21 10:10:48;;;;;;;3.97;2.03;;;;;;;;;;4970932;28;25073;-64
2023/07/21 10:13:14;;;;;;;2.78;2.58;;;;;;;;;;4967016;28;25077;-64
2023/07/21 10:15:43;;;;;;;16.95;2.92;;;;;;;;;;4969691;28;25095;-63
2023/07/21 10:18:14;;;;;;;3.47;2.92;;;;;;;;;;4975008;28;25074;-64
2023/07/21 10:20:48;;;;;;;2.88;2.50;;;;;;;;;;4987475;28;25076;-64
2023/07/21 10:23:14;;;;;;;4.43;3.55;;;;;;;;;;4965091;28;25056;-63
2023/07/21 10:25:53;;;;;;;4.93;3.22;;;;;;;;;;4986293;28;25135;-64
2023/07/21 10:28:23;;;;;;;6.78;4.00;;;;;;;;;;4987548;28;25160;-64
2023/07/21 10:30:49;;;;;;;4.80;4.05;;;;;;;;;;4993806;28;25138;-62
2023/07/21 10:33:22;;;;;;;4.60;3.38;;;;;;;;;;4982364;28;25083;-64
2023/07/21 10:35:48;;;;;;;4.95;3.10;;;;;;;;;;4970617;28;25054;-64
2023/07/21 10:38:14;;;;;;;3.08;2.45;;;;;;;;;;4965548;28;25047;-64
2023/07/21 10:40:44;;;;;;;3.08;2.50;;;;;;;;;;4974025;28;25120;-64
2023/07/21 10:43:10;;;;;;;2.80;2.20;;;;;;;;;;4971995;28;25105;-64
2023/07/21 10:45:36;;;;;;;3.03;1.50;;;;;;;;;;4967106;28;25096;-63
2023/07/21 10:48:12;;;;;;;1.08;1.00;;;;;;;;;;4965398;28;25106;-66
2023/07/21 10:50:41;;;;;;;1.55;0.82;;;;;;;;;;4967588;28;25086;-65
2023/07/21 10:53:07;;;;;;;2.13;1.70;;;;;;;;;;4990748;28;25164;-65
2023/07/21 10:55:36;;;;;;;1.30;0.93;;;;;;;;;;4995516;28;25054;-64
2023/07/21 10:58:02;;;;;;;1.17;0.90;;;;;;;;;;4997280;28;25066;-65
2023/07/21 11:00:28;;;;;;;2.80;1.42;;;;;;;;;;4992773;28;25080;-64
2023/07/21 11:02:54;;;;;;;1.35;1.10;;;;;;;;;;4997221;28;25084;-65
2023/07/21 11:05:22;;;;;;;0.70;0.70;;;;;;;;;;4968703;28;25154;-65
2023/07/21 11:07:48;;;;;;;3.05;0.73;;;;;;;;;;4987572;28;25053;-64
2023/07/21 11:10:15;;;;;;;0.98;0.82;;;;;;;;;;4989937;28;25140;-65
2023/07/21 11:12:41;;;;;;;0.80;0.80;;;;;;;;;;4988863;28;25103;-64
2023/07/21 11:15:10;;;;;;;0.80;0.70;;;;;;;;;;4964923;28;25105;-65
2023/07/21 11:17:36;;;;;;;8.13;1.45;;;;;;;;;;4965883;28;25059;-65
2023/07/21 11:20:12;;;;;;;1.85;1.15;;;;;;;;;;4987170;28;25067;-63
2023/07/21 11:22:38;;;;;;;2.95;1.20;;;;;;;;;;4986615;28;25062;-65
2023/07/21 11:25:09;;;;;;;2.05;1.52;;;;;;;;;;4986735;28;25100;-64
2023/07/21 11:27:35;;;;;;;2.90;1.70;;;;;;;;;;4976517;28;25080;-65
2023/07/21 11:30:02;;;;;;;3.47;1.38;;;;;;;;;;4970939;28;25081;-63
2023/07/21 11:32:28;;;;;;;3.63;1.67;;;;;;;;;;5002524;28;25129;-64
2023/07/21 11:34:58;;;;;;;6.00;2.20;;;;;;;;;;4979556;28;25128;-64
2023/07/21 11:37:24;;;;;;;2.28;1.50;;;;;;;;;;4971604;28;25069;-65
2023/07/21 11:39:57;;;;;;;3.17;1.48;;;;;;;;;;4982911;28;25070;-63
2023/07/21 11:42:23;;;;;;;5.65;1.88;;;;;;;;;;4977256;28;25045;-67
2023/07/21 11:44:49;;;;;;;1.77;1.40;;;;;;;;;;4976864;28;25093;-65
2023/07/21 11:47:16;;;;;;;3.33;1.98;;;;;;;;;;4969986;28;25091;-64
2023/07/21 11:49:45;;;;;;;5.78;2.28;;;;;;;;;;4982424;28;25143;-64
2023/07/21 11:52:22;;;;;;;17.95;4.10;;;;;;;;;;4987798;28;25133;-64
2023/07/21 11:54:48;;;;;;;7.90;3.58;;;;;;;;;;4989432;28;25072;-63
2023/07/21 11:57:14;;;;;;;11.90;3.75;;;;;;;;;;4993883;28;25072;-66
2023/07/21 11:59:40;;;;;;;5.40;3.28;;;;;;;;;;4977017;28;25055;-64
2023/07/21 12:02:08;;;;;;;9.65;4.22;;;;;;;;;;4972792;28;25127;-66
2023/07/21 12:04:34;;;;;;;5.63;3.88;;;;;;;;;;4966551;28;25050;-65
2023/07/21 12:07:00;;;;;;;5.50;3.45;;;;;;;;;;4977207;28;25077;-63
2023/07/21 12:09:26;;;;;;;4.82;3.60;;;;;;;;;;4978512;28;25082;-64
2023/07/21 12:11:54;;;;;;;6.80;3.80;;;;;;;;;;4972992;28;25161;-64
2023/07/21 12:14:20;;;;;;;6.45;3.55;;;;;;;;;;4995227;28;25079;-63
2023/07/21 12:16:46;;;;;;;5.65;3.45;;;;;;;;;;4997807;28;25072;-64
2023/07/21 12:19:13;;;;;;;5.05;3.60;;;;;;;;;;4984733;28;25166;-65
2023/07/21 12:21:40;;;;;;;5.50;3.47;;;;;;;;;;4974967;28;25096;-64
2023/07/21 12:24:06;;;;;;;8.48;4.15;;;;;;;;;;4973348;28;25072;-65
2023/07/21 12:26:32;;;;;;;4.97;3.17;;;;;;;;;;4977811;28;25086;-64
2023/07/21 12:28:58;;;;;;;5.45;3.78;;;;;;;;;;4971614;28;25065;-64
2023/07/21 12:31:25;;;;;;;5.10;2.85;;;;;;;;;;4976572;28;25100;-63
2023/07/21 12:33:51;;;;;;;5.07;3.95;;;;;;;;;;4977228;28;25122;-63
2023/07/21 12:36:20;;;;;;;5.90;3.60;;;;;;;;;;4967424;28;25076;-64
2023/07/21 12:38:46;;;;;;;7.03;3.85;;;;;;;;;;4974356;28;25133;-64
2023/07/21 12:41:13;;;;;;;9.07;3.78;;;;;;;;;;4984392;28;25080;-64
2023/07/21 12:43:39;;;;;;;6.65;4.28;;;;;;;;;;4995756;28;25106;-62
2023/07/21 12:46:05;;;;;;;8.95;3.92;;;;;;;;;;4984618;28;25074;-63
2023/07/21 12:48:32;;;;;;;7.15;4.15;;;;;;;;;;4978690;28;25064;-64
2023/07/21 12:50:58;;;;;;;7.82;4.43;;;;;;;;;;4978621;28;25060;-63
2023/07/21 12:53:25;;;;;;;9.18;5.20;;;;;;;;;;4980975;28;25056;-63
2023/07/21 12:55:52;;;;;;;10.75;4.75;;;;;;;;;;4988478;28;25110;-61
2023/07/21 12:58:18;;;;;;;9.10;5.07;;;;;;;;;;4972802;28;25083;-65
2023/07/21 13:00:44;;;;;;;5.95;4.03;;;;;;;;;;4994618;28;25066;-63
2023/07/21 13:03:11;;;;;;;8.25;4.80;;;;;;;;;;4998874;28;25122;-64
2023/07/21 13:05:37;;;;;;;9.98;4.90;;;;;;;;;;4970973;28;25092;-64
2023/07/21 13:08:03;;;;;;;11.68;5.32;;;;;;;;;;4976394;28;25138;-62
2023/07/21 13:10:29;;;;;;;8.70;5.35;;;;;;;;;;4969373;28;25047;-62
2023/07/21 13:12:56;;;;;;;6.60;5.35;;;;;;;;;;4980875;28;25070;-64
2023/07/21 13:15:22;;;;;;;10.40;5.28;;;;;;;;;;4982948;28;25140;-64
2023/07/21 13:17:49;;;;;;;8.85;5.47;;;;;;;;;;4982426;28;25064;-62
2023/07/21 13:20:15;;;;;;;13.45;6.57;;;;;;;;;;4980020;28;25091;-64
2023/07/21 13:22:44;;;;;;;7.63;5.25;;;;;;;;;;4987219;28;25108;-63
2023/07/21 13:25:10;;;;;;;12.25;5.45;;;;;;;;;;4975762;28;25063;-63
2023/07/21 13:27:36;;;;;;;10.15;5.25;;;;;;;;;;4981408;28;25057;-62
2023/07/21 13:30:04;;;;;;;10.63;5.20;;;;;;;;;;4972004;28;25143;-63
2023/07/21 13:32:30;;;;;;;8.90;5.07;;;;;;;;;;4978522;28;25075;-62
2023/07/21 13:34:56;;;;;;;7.07;5.07;;;;;;;;;;4976633;28;25066;-62
2023/07/21 13:37:22;;;;;;;9.32;5.70;;;;;;;;;;4974184;28;25128;-64
2023/07/21 13:39:48;;;;;;;9.15;5.10;;;;;;;;;;4972563;28;25099;-63
2023/07/21 13:42:14;;;;;;;9.27;5.43;;;;;;;;;;4976897;28;25112;-64
2023/07/21 13:44:40;;;;;;;9.50;5.50;;;;;;;;;;4971049;28;25072;-63
2023/07/21 13:47:06;;;;;;;10.48;7.15;;;;;;;;;;4977869;28;25084;-62
2023/07/21 13:49:32;;;;;;;8.98;5.05;;;;;;;;;;4972372;28;25067;-65
2023/07/21 13:51:59;;;;;;;9.45;5.20;;;;;;;;;;4989915;28;25060;-61
2023/07/21 13:54:25;;;;;;;7.75;5.03;;;;;;;;;;4990244;28;25064;-63
2023/07/21 13:56:51;;;;;;;7.63;5.40;;;;;;;;;;4976227;28;25122;-62
2023/07/21 13:59:17;;;;;;;7.05;5.07;;;;;;;;;;4980304;28;25117;-63
2023/07/21 14:01:43;;;;;;;6.45;4.75;;;;;;;;;;4987859;28;25105;-63
2023/07/21 14:04:09;;;;;;;8.57;5.32;;;;;;;;;;4984090;28;25076;-61
2023/07/21 14:06:37;;;;;;;8.90;5.50;;;;;;;;;;4973596;28;25087;-62
2023/07/21 14:09:07;;;;;;;6.70;4.95;;;;;;;;;;4973085;28;25103;-62
2023/07/21 14:11:33;;;;;;;6.30;4.97;;;;;;;;;;4978562;28;25166;-63
2023/07/21 14:13:59;;;;;;;8.52;4.50;;;;;;;;;;4966017;28;25071;-63
2023/07/21 14:16:25;;;;;;;4.78;4.13;;;;;;;;;;4971364;28;25108;-65
2023/07/21 14:18:51;;;;;;;9.05;4.32;;;;;;;;;;4970317;28;25132;-62
2023/07/21 14:21:17;;;;;;;8.07;4.88;;;;;;;;;;4975914;28;25066;-62
2023/07/21 14:23:43;;;;;;;7.28;5.35;;;;;;;;;;4968086;28;25072;-62
2023/07/21 14:26:09;;;;;;;7.18;5.10;;;;;;;;;;4970798;28;25128;-63
2023/07/21 14:28:35;;;;;;;8.98;4.70;;;;;;;;;;4966962;28;25189;-63
2023/07/21 14:31:01;;;;;;;7.32;5.00;;;;;;;;;;4970669;28;25089;-62
2023/07/21 14:33:27;;;;;;;5.75;4.60;;;;;;;;;;4968109;28;25071;-62
2023/07/21 14:35:53;;;;;;;9.50;5.30;;;;;;;;;;4972410;28;25131;-63
2023/07/21 14:38:20;;;;;;;10.32;4.78;;;;;;;;;;4985129;28;25163;-61